createdAt,value
2024-01-28T00:01:53.082Z,25.30
2024-01-28T00:03:55.019Z,25.30
2024-01-28T00:05:56.972Z,25.40
2024-01-28T00:07:59.946Z,25.40
2024-01-28T00:10:01.876Z,25.50
2024-01-28T00:12:03.998Z,25.50
2024-01-28T00:14:06.363Z,25.40
2024-01-28T00:16:14.607Z,25.40
2024-01-28T00:18:16.601Z,25.40
2024-01-28T00:20:18.602Z,25.30
2024-01-28T00:22:20.647Z,25.30
2024-01-28T00:24:24.774Z,25.20
2024-01-28T00:26:26.739Z,25.20
2024-01-28T00:28:29.156Z,25.30
2024-01-28T00:30:33.515Z,25.40
2024-01-28T00:32:35.656Z,25.40
2024-01-28T00:34:38.345Z,25.50
2024-01-28T00:36:40.524Z,25.50
2024-01-28T00:38:42.334Z,25.50
2024-01-28T00:40:44.222Z,25.40
2024-01-28T00:42:47.099Z,25.40
2024-01-28T00:44:48.882Z,25.40
2024-01-28T00:46:50.724Z,25.30
2024-01-28T00:48:52.646Z,25.30
2024-01-28T00:50:54.550Z,25.20
2024-01-28T00:52:56.489Z,25.20
2024-01-28T00:54:58.601Z,25.30
2024-01-28T00:57:00.506Z,25.30
2024-01-28T00:59:02.376Z,25.40
2024-01-28T01:01:05.379Z,25.40
2024-01-28T01:03:07.400Z,25.40
2024-01-28T01:05:09.309Z,25.40
2024-01-28T01:07:11.137Z,25.40
2024-01-28T01:09:13.257Z,25.40
2024-01-28T01:11:15.242Z,25.30
2024-01-28T01:13:17.393Z,25.30
2024-01-28T01:15:19.688Z,25.20
2024-01-28T01:17:21.527Z,25.10
2024-01-28T01:19:23.364Z,25.10
2024-01-28T01:21:25.250Z,25.20
2024-01-28T01:23:27.104Z,25.20
2024-01-28T01:25:29.020Z,25.30
2024-01-28T01:27:30.945Z,25.30
2024-01-28T01:29:32.846Z,25.40
2024-01-28T01:31:34.681Z,25.40
2024-01-28T01:33:36.771Z,25.40
2024-01-28T01:35:39.210Z,25.30
2024-01-28T01:37:41.611Z,25.30
2024-01-28T01:39:43.547Z,25.30
2024-01-28T01:41:45.475Z,25.20
2024-01-28T01:43:47.321Z,25.10
2024-01-28T01:45:49.657Z,25.10
2024-01-28T01:47:51.897Z,25.20
2024-01-28T01:49:54.219Z,25.30
2024-01-28T01:51:56.340Z,25.30
2024-01-28T01:53:58.697Z,25.30
2024-01-28T01:56:00.620Z,25.30
2024-01-28T01:58:04.656Z,25.40
2024-01-28T02:00:07.333Z,25.30
2024-01-28T02:02:10.991Z,25.30
2024-01-28T02:04:13.886Z,25.30
2024-01-28T02:06:16.025Z,25.30
2024-01-28T02:08:18.426Z,25.20
2024-01-28T02:10:23.245Z,25.20
2024-01-28T02:12:25.206Z,25.10
2024-01-28T02:14:30.065Z,25.20
2024-01-28T02:16:31.910Z,25.30
2024-01-28T02:18:33.975Z,25.30
2024-01-28T02:20:35.922Z,25.30
2024-01-28T02:22:37.763Z,25.30
2024-01-28T02:24:39.679Z,25.30
2024-01-28T02:26:41.790Z,25.30
2024-01-28T02:28:43.643Z,25.30
2024-01-28T02:30:45.580Z,25.30
2024-01-28T02:32:51.754Z,25.20
2024-01-28T02:34:53.701Z,25.20
2024-01-28T02:36:55.734Z,25.10
2024-01-28T02:39:00.072Z,25.10
2024-01-28T02:41:01.912Z,25.10
2024-01-28T02:43:05.922Z,25.20
2024-01-28T02:45:08.515Z,25.20
2024-01-28T02:47:10.360Z,25.30
2024-01-28T02:49:12.571Z,25.30
2024-01-28T02:51:14.546Z,25.30
2024-01-28T02:53:16.684Z,25.30
2024-01-28T02:55:18.482Z,25.30
2024-01-28T02:57:20.362Z,25.30
2024-01-28T02:59:22.370Z,25.20
2024-01-28T03:01:24.371Z,25.10
2024-01-28T03:03:26.330Z,25.10
2024-01-28T03:05:28.174Z,25.10
2024-01-28T03:07:30.088Z,25.10
2024-01-28T03:09:32.007Z,25.10
2024-01-28T03:11:34.046Z,25.20
2024-01-28T03:13:36.634Z,25.30
2024-01-28T03:15:39.121Z,25.30
2024-01-28T03:17:41.054Z,25.30
2024-01-28T03:19:43.009Z,25.30
2024-01-28T03:21:45.003Z,25.30
2024-01-28T03:23:47.279Z,25.30
2024-01-28T03:25:49.365Z,25.20
2024-01-28T03:27:51.232Z,25.20
2024-01-28T03:29:52.972Z,25.10
2024-01-28T03:31:55.330Z,25.10
2024-01-28T03:33:57.658Z,25.10
2024-01-28T03:35:59.689Z,25.20
2024-01-28T03:38:01.547Z,25.20
2024-01-28T03:40:03.690Z,25.30
2024-01-28T03:42:05.724Z,25.30
2024-01-28T03:44:08.358Z,25.30
2024-01-28T03:46:10.348Z,25.30
2024-01-28T03:48:12.278Z,25.30
2024-01-28T03:50:14.249Z,25.20
2024-01-28T03:52:17.290Z,25.20
2024-01-28T03:54:19.592Z,25.10
2024-01-28T03:56:21.466Z,25.10
2024-01-28T03:58:23.241Z,25.00
2024-01-28T04:00:30.236Z,25.10
2024-01-28T04:02:32.336Z,25.20
2024-01-28T04:04:35.112Z,25.20
2024-01-28T04:06:45.897Z,25.30
2024-01-28T04:08:47.866Z,25.30
2024-01-28T04:10:49.646Z,25.30
2024-01-28T04:12:51.473Z,25.30
2024-01-28T04:14:53.299Z,25.20
2024-01-28T04:16:55.140Z,25.20
2024-01-28T04:18:57.936Z,25.10
2024-01-28T04:20:59.816Z,25.10
2024-01-28T04:23:03.275Z,25.00
2024-01-28T04:25:06.987Z,25.00
2024-01-28T04:27:08.784Z,25.00
2024-01-28T04:29:10.622Z,25.10
2024-01-28T04:31:14.075Z,25.10
2024-01-28T04:33:16.368Z,25.20
2024-01-28T04:35:18.279Z,25.20
2024-01-28T04:37:20.092Z,25.20
2024-01-28T04:39:22.178Z,25.20
2024-01-28T04:41:24.031Z,25.20
2024-01-28T04:43:25.867Z,25.10
2024-01-28T04:45:27.657Z,25.10
2024-01-28T04:47:29.537Z,25.00
2024-01-28T04:49:33.598Z,25.00
2024-01-28T04:51:35.841Z,24.90
2024-01-28T04:53:37.991Z,25.00
2024-01-28T04:55:39.949Z,25.10
2024-01-28T04:57:41.798Z,25.10
2024-01-28T04:59:43.826Z,25.20
2024-01-28T05:01:45.831Z,25.20
2024-01-28T05:03:47.735Z,25.20
2024-01-28T05:05:49.598Z,25.20
2024-01-28T05:07:51.597Z,25.10
2024-01-28T05:09:53.581Z,25.10
2024-01-28T05:11:55.584Z,25.10
2024-01-28T05:13:57.400Z,25.00
2024-01-28T05:15:59.178Z,25.00
2024-01-28T05:18:01.136Z,25.00
2024-01-28T05:20:04.071Z,25.00
2024-01-28T05:22:05.905Z,25.10
2024-01-28T05:24:07.823Z,25.10
2024-01-28T05:26:09.858Z,25.20
2024-01-28T05:28:12.566Z,25.20
2024-01-28T05:30:14.803Z,25.20
2024-01-28T05:32:16.682Z,25.20
2024-01-28T05:34:18.708Z,25.20
2024-01-28T05:36:20.556Z,25.20
2024-01-28T05:38:22.484Z,25.10
2024-01-28T05:40:24.233Z,25.10
2024-01-28T05:42:26.104Z,25.00
2024-01-28T05:44:28.364Z,24.90
2024-01-28T05:46:30.208Z,25.00
2024-01-28T05:48:33.870Z,25.10
2024-01-28T05:50:35.769Z,25.20
2024-01-28T05:52:37.635Z,25.20
2024-01-28T05:54:43.329Z,25.20
2024-01-28T05:56:45.399Z,25.20
2024-01-28T05:58:47.308Z,25.20
2024-01-28T06:00:49.383Z,25.10
2024-01-28T06:02:51.241Z,25.10
2024-01-28T06:04:53.071Z,25.10
2024-01-28T06:06:55.321Z,25.00
2024-01-28T06:08:57.103Z,24.90
2024-01-28T06:10:59.182Z,25.00
2024-01-28T06:13:01.368Z,25.00
2024-01-28T06:15:07.296Z,25.10
2024-01-28T06:17:09.186Z,25.10
2024-01-28T06:19:11.091Z,25.20
2024-01-28T06:21:13.486Z,25.20
2024-01-28T06:23:15.364Z,25.20
2024-01-28T06:25:17.667Z,25.20
2024-01-28T06:27:20.142Z,25.20
2024-01-28T06:29:21.996Z,25.20
2024-01-28T06:31:23.918Z,25.10
2024-01-28T06:33:25.909Z,25.00
2024-01-28T06:35:27.917Z,24.90
2024-01-28T06:37:29.814Z,24.90
2024-01-28T06:39:32.515Z,25.00
2024-01-28T06:41:35.644Z,25.10
2024-01-28T06:43:37.393Z,25.10
2024-01-28T06:45:39.780Z,25.20
2024-01-28T06:47:41.930Z,25.20
2024-01-28T06:49:44.132Z,25.20
2024-01-28T06:51:46.133Z,25.20
2024-01-28T06:53:48.974Z,25.10
2024-01-28T06:55:51.323Z,25.10
2024-01-28T06:57:53.251Z,25.00
2024-01-28T06:59:55.068Z,25.00
2024-01-28T07:01:57.305Z,24.90
2024-01-28T07:03:59.400Z,24.90
2024-01-28T07:06:01.296Z,25.00
2024-01-28T07:08:03.271Z,25.10
2024-01-28T07:10:06.261Z,25.10
2024-01-28T07:12:10.145Z,25.10
2024-01-28T07:14:12.177Z,25.10
2024-01-28T07:16:14.149Z,25.10
2024-01-28T07:18:16.227Z,25.10
2024-01-28T07:20:18.119Z,25.10
2024-01-28T07:22:19.928Z,25.10
2024-01-28T07:24:21.840Z,25.10
2024-01-28T07:26:23.787Z,25.00
2024-01-28T07:28:25.584Z,24.90
2024-01-28T07:30:27.502Z,24.90
2024-01-28T07:32:29.404Z,25.00
2024-01-28T07:34:31.367Z,25.00
2024-01-28T07:36:36.563Z,25.10
2024-01-28T07:38:40.192Z,25.10
2024-01-28T07:40:42.057Z,25.20
2024-01-28T07:42:43.901Z,25.20
2024-01-28T07:44:45.753Z,25.10
2024-01-28T07:46:48.322Z,25.10
2024-01-28T07:48:50.761Z,25.10
2024-01-28T07:50:52.677Z,25.00
2024-01-28T07:52:54.588Z,24.90
2024-01-28T07:54:56.570Z,24.90
2024-01-28T07:56:58.485Z,24.90
2024-01-28T07:59:00.389Z,24.90
2024-01-28T08:01:02.443Z,25.00
2024-01-28T08:03:04.289Z,25.10
2024-01-28T08:05:07.065Z,25.10
2024-01-28T08:07:08.944Z,25.10
2024-01-28T08:09:11.256Z,25.20
2024-01-28T08:11:13.097Z,25.10
2024-01-28T08:13:15.023Z,25.10
2024-01-28T08:15:17.055Z,25.10
2024-01-28T08:17:18.925Z,25.10
2024-01-28T08:19:20.853Z,25.00
2024-01-28T08:21:22.675Z,24.90
2024-01-28T08:23:24.705Z,24.90
2024-01-28T08:25:26.605Z,25.00
2024-01-28T08:27:28.558Z,25.10
2024-01-28T08:29:30.299Z,25.10
2024-01-28T08:31:32.112Z,25.20
2024-01-28T08:33:34.170Z,25.20
2024-01-28T08:35:38.265Z,25.20
2024-01-28T08:37:41.483Z,25.20
2024-01-28T08:39:43.978Z,25.20
2024-01-28T08:41:45.830Z,25.20
2024-01-28T08:43:47.804Z,25.10
2024-01-28T08:45:49.888Z,25.10
2024-01-28T08:47:51.827Z,25.00
2024-01-28T08:49:54.096Z,25.00
2024-01-28T08:51:56.220Z,25.10
2024-01-28T08:53:58.214Z,25.10
2024-01-28T08:56:00.048Z,25.10
2024-01-28T08:58:01.910Z,25.20
2024-01-28T09:00:06.349Z,25.20
2024-01-28T09:02:08.472Z,25.20
2024-01-28T09:04:11.205Z,25.20
2024-01-28T09:06:13.191Z,25.20
2024-01-28T09:08:15.237Z,25.20
2024-01-28T09:10:19.817Z,25.10
2024-01-28T09:12:21.891Z,25.10
2024-01-28T09:14:23.708Z,25.00
2024-01-28T09:16:27.228Z,25.00
2024-01-28T09:18:29.267Z,25.00
2024-01-28T09:20:31.083Z,25.10
2024-01-28T09:22:35.190Z,25.20
2024-01-28T09:24:37.738Z,25.20
2024-01-28T09:26:39.559Z,25.20
2024-01-28T09:28:41.314Z,25.20
2024-01-28T09:30:43.573Z,25.20
2024-01-28T09:32:48.093Z,25.20
2024-01-28T09:34:50.039Z,25.20
2024-01-28T09:36:52.099Z,25.10
2024-01-28T09:38:53.939Z,25.10
2024-01-28T09:40:55.938Z,25.10
2024-01-28T09:43:05.907Z,25.00
2024-01-28T09:45:10.479Z,25.10
2024-01-28T09:47:13.435Z,25.10
2024-01-28T09:49:17.195Z,25.20
2024-01-28T09:51:24.047Z,25.30
2024-01-28T09:53:26.318Z,25.30
2024-01-28T09:55:28.240Z,25.30
2024-01-28T09:57:30.282Z,25.20
2024-01-28T09:59:36.434Z,25.20
2024-01-28T10:01:39.108Z,25.20
2024-01-28T10:03:43.037Z,25.20
2024-01-28T10:05:44.899Z,25.10
2024-01-28T10:07:49.228Z,25.00
2024-01-28T10:09:51.862Z,25.00
2024-01-28T10:11:53.892Z,25.10
2024-01-28T10:13:55.749Z,25.20
2024-01-28T10:15:58.546Z,25.20
2024-01-28T10:18:00.682Z,25.30
2024-01-28T10:20:03.016Z,25.30
2024-01-28T10:22:05.151Z,25.30
2024-01-28T10:24:10.476Z,25.30
2024-01-28T10:26:12.358Z,25.30
2024-01-28T10:28:14.283Z,25.30
2024-01-28T10:30:17.895Z,25.20
2024-01-28T10:32:19.808Z,25.20
2024-01-28T10:34:22.091Z,25.10
2024-01-28T10:36:24.227Z,25.10
2024-01-28T10:38:27.085Z,25.20
2024-01-28T10:40:35.572Z,25.30
2024-01-28T10:42:42.311Z,25.40
2024-01-28T10:44:48.925Z,25.40
2024-01-28T10:46:55.693Z,25.40
2024-01-28T10:49:03.777Z,25.40
2024-01-28T10:51:07.241Z,25.40
2024-01-28T10:53:11.131Z,25.40
2024-01-28T10:55:13.247Z,25.40
2024-01-28T10:57:15.381Z,25.30
2024-01-28T10:59:17.681Z,25.20
2024-01-28T11:01:19.884Z,25.20
2024-01-28T11:03:22.011Z,25.20
2024-01-28T11:05:24.511Z,25.30
2024-01-28T11:07:27.481Z,25.30
2024-01-28T11:09:29.324Z,25.40
2024-01-28T11:11:31.753Z,25.50
2024-01-28T11:13:33.705Z,25.50
2024-01-28T11:15:35.616Z,25.50
2024-01-28T11:17:38.821Z,25.40
2024-01-28T11:19:41.108Z,25.50
2024-01-28T11:21:51.098Z,25.40
2024-01-28T11:23:55.985Z,25.40
2024-01-28T11:26:00.231Z,25.30
2024-01-28T11:28:11.842Z,25.30
2024-01-28T11:30:14.618Z,25.30
2024-01-28T11:32:16.601Z,25.40
2024-01-28T11:34:23.222Z,25.40
2024-01-28T11:36:29.944Z,25.50
2024-01-28T11:38:39.816Z,25.60
2024-01-28T11:40:48.466Z,25.60
2024-01-28T11:42:56.274Z,25.60
2024-01-28T11:44:58.247Z,25.60
2024-01-28T11:47:02.618Z,25.60
2024-01-28T11:49:05.580Z,25.50
2024-01-28T11:51:07.489Z,25.50
2024-01-28T11:53:10.882Z,25.40
2024-01-28T11:55:17.471Z,25.40
2024-01-28T11:57:19.395Z,25.50
2024-01-28T11:59:21.258Z,25.60
2024-01-28T12:01:23.878Z,25.60
2024-01-28T12:03:25.828Z,25.70
2024-01-28T12:05:27.656Z,25.70
2024-01-28T12:07:40.309Z,25.70
2024-01-28T12:09:42.186Z,25.80
2024-01-28T12:11:44.069Z,25.80
2024-01-28T12:13:46.225Z,25.70
2024-01-28T12:15:48.090Z,25.70
2024-01-28T12:17:53.072Z,25.70
2024-01-28T12:19:55.033Z,25.60
2024-01-28T12:21:59.524Z,25.60
2024-01-28T12:24:03.351Z,25.70
2024-01-28T12:26:05.330Z,25.80
2024-01-28T12:28:07.416Z,25.80
2024-01-28T12:41:11.611Z,25.90
2024-01-28T12:43:13.729Z,25.90
2024-01-28T12:45:15.835Z,25.80
2024-01-28T12:47:18.094Z,25.80
2024-01-28T12:49:20.113Z,25.80
2024-01-28T12:51:22.022Z,25.80
2024-01-28T12:53:24.007Z,25.90
2024-01-28T12:55:26.046Z,25.90
2024-01-28T12:57:28.211Z,25.90
2024-01-28T12:59:30.072Z,26.00
2024-01-28T13:01:32.729Z,26.00
2024-01-28T13:03:34.604Z,26.00
2024-01-28T13:05:36.911Z,25.90
2024-01-28T13:07:39.787Z,25.90
2024-01-28T13:09:41.581Z,25.90
2024-01-28T13:11:43.549Z,25.80
2024-01-28T13:13:45.409Z,25.80
2024-01-28T13:15:47.594Z,25.80
2024-01-28T13:17:49.480Z,25.80
2024-01-28T13:19:55.054Z,25.80
2024-01-28T13:21:57.102Z,25.90
2024-01-28T13:23:59.481Z,25.90
2024-01-28T13:26:03.441Z,25.90
2024-01-28T13:28:05.679Z,26.00
2024-01-28T13:30:08.387Z,26.00
2024-01-28T13:32:10.243Z,25.90
2024-01-28T13:34:12.420Z,25.90
2024-01-28T13:36:14.488Z,25.80
2024-01-28T13:38:16.413Z,25.80
2024-01-28T13:40:18.292Z,25.80
2024-01-28T13:42:20.160Z,25.80
2024-01-28T13:46:29.231Z,25.90
2024-01-28T13:48:31.594Z,25.90
2024-01-28T13:50:34.005Z,25.90
2024-01-28T13:52:35.940Z,26.00
2024-01-28T13:54:38.214Z,26.00
2024-01-28T13:58:46.861Z,25.90
2024-01-28T14:00:48.808Z,25.90
2024-01-28T14:02:50.777Z,25.80
2024-01-28T14:06:59.637Z,25.70
2024-01-28T14:09:01.604Z,25.70
2024-01-28T14:11:03.524Z,25.70
2024-01-28T14:13:06.163Z,25.80
2024-01-28T14:15:10.409Z,25.90
2024-01-28T14:17:12.400Z,25.80
2024-01-28T14:19:14.389Z,25.90
2024-01-28T14:21:17.904Z,25.90
2024-01-28T14:23:19.855Z,25.90
2024-01-28T14:25:21.654Z,25.90
2024-01-28T14:27:23.596Z,25.90
2024-01-28T14:29:29.065Z,25.80
2024-01-28T14:31:31.105Z,25.80
2024-01-28T14:35:39.707Z,25.70
2024-01-28T14:37:41.921Z,25.70
2024-01-28T14:39:44.679Z,25.80
2024-01-28T14:41:48.764Z,25.80
2024-01-28T14:43:51.549Z,25.90
2024-01-28T14:45:56.132Z,25.90
2024-01-28T14:47:58.499Z,25.90
2024-01-28T14:50:03.406Z,25.90
2024-01-28T14:52:05.633Z,25.90
2024-01-28T14:54:07.490Z,25.90
2024-01-28T14:56:09.841Z,25.80
2024-01-28T14:58:11.982Z,25.80
2024-01-28T15:00:14.740Z,25.70
2024-01-28T15:02:17.271Z,25.70
2024-01-28T15:04:19.252Z,25.80
2024-01-28T15:06:22.411Z,25.80
2024-01-28T15:08:24.931Z,25.80
2024-01-28T15:10:27.318Z,25.90
2024-01-28T15:12:29.347Z,26.00
2024-01-28T15:14:31.224Z,26.00
2024-01-28T15:16:33.094Z,25.90
2024-01-28T15:18:35.393Z,26.00
2024-01-28T15:20:37.322Z,25.90
2024-01-28T15:22:39.175Z,25.90
2024-01-28T15:24:41.129Z,25.80
2024-01-28T15:26:43.258Z,25.70
2024-01-28T15:28:45.090Z,25.70
2024-01-28T15:30:46.976Z,25.70
2024-01-28T15:32:49.081Z,25.80
2024-01-28T15:34:51.877Z,25.90
2024-01-28T15:36:54.097Z,25.90
2024-01-28T15:38:55.992Z,25.90
2024-01-28T15:40:58.100Z,26.00
2024-01-28T15:42:59.915Z,25.90
2024-01-28T15:45:01.911Z,25.90
2024-01-28T15:49:11.334Z,25.90
2024-01-28T15:51:13.368Z,25.80
2024-01-28T15:53:15.389Z,25.80
2024-01-28T15:55:22.795Z,25.80
2024-01-28T15:57:30.391Z,25.80
2024-01-28T15:59:32.570Z,25.80
2024-01-28T16:01:34.565Z,25.80
2024-01-28T16:03:36.812Z,25.90
2024-01-28T16:05:39.469Z,25.90
2024-01-28T16:07:41.510Z,25.90
2024-01-28T16:09:48.873Z,25.90
2024-01-28T16:11:54.113Z,25.90
2024-01-28T16:13:55.936Z,25.90
2024-01-28T16:15:57.788Z,25.90
2024-01-28T16:18:01.415Z,25.80
2024-01-28T16:20:04.824Z,25.80
2024-01-28T16:22:06.909Z,25.70
2024-01-28T16:24:09.042Z,25.70
2024-01-28T16:26:11.844Z,25.80
2024-01-28T16:28:14.216Z,25.80
2024-01-28T16:30:16.085Z,25.90
2024-01-28T16:32:17.948Z,25.90
2024-01-28T16:34:19.733Z,25.90
2024-01-28T16:36:21.858Z,25.90
2024-01-28T16:38:24.104Z,25.90
2024-01-28T16:40:25.925Z,25.90
2024-01-28T16:42:27.727Z,25.80
2024-01-28T16:44:29.833Z,25.80
2024-01-28T16:46:34.833Z,25.80
2024-01-28T16:48:38.931Z,25.70
2024-01-28T16:50:41.999Z,25.70
2024-01-28T16:52:43.958Z,25.70
2024-01-28T16:54:45.879Z,25.80
2024-01-28T16:56:48.215Z,25.80
2024-01-28T16:58:50.149Z,25.90
2024-01-28T17:00:52.072Z,25.90
2024-01-28T17:02:54.196Z,25.90
2024-01-28T17:04:55.991Z,25.90
2024-01-28T17:06:58.010Z,25.90
2024-01-28T17:08:59.873Z,25.90
2024-01-28T17:11:01.619Z,25.80
2024-01-28T17:13:03.668Z,25.80
2024-01-28T17:15:06.166Z,25.70
2024-01-28T17:17:07.969Z,25.70
2024-01-28T17:19:09.884Z,25.70
2024-01-28T17:21:11.735Z,25.70
2024-01-28T17:23:13.952Z,25.80
2024-01-28T17:25:16.094Z,25.90
2024-01-28T17:27:18.036Z,25.90
2024-01-28T17:29:19.878Z,25.90
2024-01-28T17:31:21.749Z,25.90
2024-01-28T17:33:23.754Z,25.90
2024-01-28T17:35:25.725Z,25.80
2024-01-28T17:37:27.620Z,25.80
2024-01-28T17:39:29.565Z,25.80
2024-01-28T17:41:32.151Z,25.70
2024-01-28T17:43:34.023Z,25.70
2024-01-28T17:45:35.835Z,25.70
2024-01-28T17:47:40.210Z,25.80
2024-01-28T17:49:43.409Z,25.80
2024-01-28T17:51:45.493Z,25.90
2024-01-28T17:53:47.498Z,25.90
2024-01-28T17:55:49.843Z,25.90
2024-01-28T17:57:51.928Z,25.90
2024-01-28T17:59:53.868Z,25.90
2024-01-28T18:01:55.863Z,25.80
2024-01-28T18:03:59.354Z,25.80
2024-01-28T18:06:01.210Z,25.80
2024-01-28T18:08:03.562Z,25.70
2024-01-28T18:10:05.758Z,25.70
2024-01-28T18:12:08.132Z,25.70
2024-01-28T18:14:09.972Z,25.70
2024-01-28T18:16:14.704Z,25.80
2024-01-28T18:18:16.643Z,25.90
2024-01-28T18:20:19.042Z,25.90
2024-01-28T18:22:20.844Z,25.90
2024-01-28T18:24:23.144Z,26.00
2024-01-28T18:26:27.285Z,25.90
2024-01-28T18:28:29.041Z,25.90
2024-01-28T18:30:30.956Z,25.80
2024-01-28T18:32:32.846Z,25.80
2024-01-28T18:34:34.784Z,25.70
2024-01-28T18:36:36.825Z,25.70
2024-01-28T18:38:38.761Z,25.70
2024-01-28T18:40:40.645Z,25.80
2024-01-28T18:42:43.370Z,25.80
2024-01-28T18:44:46.540Z,25.90
2024-01-28T18:46:48.300Z,25.90
2024-01-28T18:48:50.351Z,25.90
2024-01-28T18:50:53.004Z,25.90
2024-01-28T18:52:55.605Z,25.90
2024-01-28T18:54:57.961Z,25.80
2024-01-28T18:56:59.928Z,25.80
2024-01-28T18:59:01.752Z,25.80
2024-01-28T19:01:05.278Z,25.70
2024-01-28T19:03:07.937Z,25.70
2024-01-28T19:05:09.881Z,25.70
2024-01-28T19:07:11.758Z,25.70
2024-01-28T19:09:16.959Z,25.80
2024-01-28T19:11:19.773Z,25.90
2024-01-28T19:13:21.661Z,25.90
2024-01-28T19:15:23.565Z,25.90
2024-01-28T19:17:25.429Z,25.90
2024-01-28T19:19:27.751Z,25.90
2024-01-28T19:21:29.737Z,25.90
2024-01-28T19:23:31.729Z,25.80
2024-01-28T19:25:33.635Z,25.80
2024-01-28T19:27:35.484Z,25.80
2024-01-28T19:29:37.364Z,25.70
2024-01-28T19:31:40.284Z,25.70
2024-01-28T19:33:42.361Z,25.80
2024-01-28T19:35:50.764Z,25.80
2024-01-28T19:37:52.755Z,25.80
2024-01-28T19:39:58.068Z,25.90
2024-01-28T19:42:00.852Z,25.90
2024-01-28T19:44:02.711Z,26.00
2024-01-28T19:46:04.946Z,25.90
2024-01-28T19:48:10.324Z,25.90
2024-01-28T19:50:13.056Z,25.80
2024-01-28T19:52:16.780Z,25.80
2024-01-28T19:54:21.874Z,25.70
2024-01-28T19:56:23.721Z,25.70
2024-01-28T19:58:25.629Z,25.70
2024-01-28T20:00:27.543Z,25.70
2024-01-28T20:02:29.357Z,25.80
2024-01-28T20:04:31.284Z,25.80
2024-01-28T20:06:37.417Z,25.90
2024-01-28T20:08:40.053Z,25.90
2024-01-28T20:10:41.839Z,25.90
2024-01-28T20:12:43.658Z,25.90
2024-01-28T20:14:47.092Z,25.90
2024-01-28T20:16:48.955Z,25.90
2024-01-28T20:18:50.884Z,25.80
2024-01-28T20:20:54.385Z,25.80
2024-01-28T20:22:56.238Z,25.70
2024-01-28T20:24:58.105Z,25.70
2024-01-28T20:26:59.945Z,25.70
2024-01-28T20:29:02.381Z,25.80
2024-01-28T20:31:04.336Z,25.80
2024-01-28T20:33:06.668Z,25.90
2024-01-28T20:35:12.620Z,25.90
2024-01-28T20:37:14.760Z,25.90
2024-01-28T20:39:16.756Z,25.90
2024-01-28T20:41:19.412Z,25.90
2024-01-28T20:43:21.443Z,25.80
2024-01-28T20:45:23.367Z,25.80
2024-01-28T20:47:25.308Z,25.80
2024-01-28T20:49:27.381Z,25.70
2024-01-28T20:51:29.319Z,25.70
2024-01-28T20:53:31.102Z,25.70
2024-01-28T20:55:33.222Z,25.80
2024-01-28T20:57:35.035Z,25.80
2024-01-28T20:59:39.895Z,25.90
2024-01-28T21:01:41.747Z,25.90
2024-01-28T21:03:43.706Z,25.90
2024-01-28T21:05:45.694Z,25.90
2024-01-28T21:07:48.659Z,25.90
2024-01-28T21:09:50.536Z,25.90
2024-01-28T21:11:56.111Z,25.80
2024-01-28T21:13:58.019Z,25.70
2024-01-28T21:15:59.893Z,25.70
2024-01-28T21:18:01.951Z,25.70
2024-01-28T21:20:04.648Z,25.70
2024-01-28T21:22:06.820Z,25.80
2024-01-28T21:24:10.507Z,25.90
2024-01-28T21:26:12.649Z,25.90
2024-01-28T21:28:14.921Z,25.90
2024-01-28T21:30:17.026Z,25.90
2024-01-28T21:32:19.036Z,25.90
2024-01-28T21:34:20.958Z,25.90
2024-01-28T21:36:23.077Z,25.90
2024-01-28T21:38:24.941Z,25.80
2024-01-28T21:40:26.835Z,25.80
2024-01-28T21:42:28.872Z,25.70
2024-01-28T21:44:30.791Z,25.70
2024-01-28T21:46:32.650Z,25.70
2024-01-28T21:48:34.574Z,25.80
2024-01-28T21:50:36.426Z,25.80
2024-01-28T21:52:38.248Z,25.90
2024-01-28T21:54:40.046Z,25.90
2024-01-28T21:56:41.836Z,25.90
2024-01-28T21:58:43.724Z,25.90
2024-01-28T22:00:45.654Z,25.90
2024-01-28T22:02:47.706Z,25.90
2024-01-28T22:04:49.593Z,25.80
2024-01-28T22:06:51.593Z,25.80
2024-01-28T22:08:53.456Z,25.70
2024-01-28T22:10:55.339Z,25.70
2024-01-28T22:12:57.359Z,25.70
2024-01-28T22:14:59.217Z,25.70
2024-01-28T22:17:01.328Z,25.80
2024-01-28T22:19:05.179Z,25.90
2024-01-28T22:21:07.188Z,25.90
2024-01-28T22:23:09.040Z,25.90
2024-01-28T22:25:10.872Z,25.90
2024-01-28T22:27:12.771Z,25.90
2024-01-28T22:29:14.905Z,25.90
2024-01-28T22:31:18.690Z,25.80
2024-01-28T22:33:22.435Z,25.80
2024-01-28T22:35:25.312Z,25.70
2024-01-28T22:37:28.389Z,25.70
2024-01-28T22:39:31.280Z,25.80
2024-01-28T22:41:33.414Z,25.80
2024-01-28T22:43:35.296Z,25.90
2024-01-28T22:45:37.163Z,26.00
2024-01-28T22:47:40.586Z,26.00
2024-01-28T22:49:42.697Z,26.00
2024-01-28T22:51:44.590Z,26.00
2024-01-28T22:53:46.393Z,26.00
2024-01-28T22:55:48.418Z,26.00
2024-01-28T22:57:50.315Z,25.90
2024-01-28T22:59:52.899Z,25.90
2024-01-28T23:01:54.877Z,25.80
2024-01-28T23:03:56.706Z,25.80
2024-01-28T23:05:59.820Z,25.80
2024-01-28T23:08:01.677Z,25.80
2024-01-28T23:10:04.586Z,25.90
2024-01-28T23:12:06.989Z,26.00
2024-01-28T23:14:10.026Z,26.00
2024-01-28T23:16:12.076Z,26.00
2024-01-28T23:18:14.607Z,26.00
2024-01-28T23:20:17.028Z,25.90
2024-01-28T23:22:19.600Z,25.90
2024-01-28T23:24:21.463Z,25.90
2024-01-28T23:26:24.178Z,25.80
2024-01-28T23:28:26.428Z,25.80
2024-01-28T23:30:28.934Z,25.70
2024-01-28T23:32:31.039Z,25.70
2024-01-28T23:34:32.858Z,25.80
2024-01-28T23:36:35.208Z,25.80
2024-01-28T23:38:38.285Z,25.90
2024-01-28T23:40:40.990Z,25.90
2024-01-28T23:42:43.116Z,25.90
2024-01-28T23:44:45.249Z,25.90
2024-01-28T23:46:47.058Z,25.90
2024-01-28T23:48:48.897Z,25.90
2024-01-28T23:50:52.272Z,25.90
2024-01-28T23:52:55.896Z,25.80
2024-01-28T23:54:58.072Z,25.80
2024-01-28T23:57:00.040Z,25.70
2024-01-28T23:59:02.042Z,25.70
